Pease, Minnesota
Current Conditions -  °F | °C
As of 2:14 PM on Monday 24 Nov 2014 (Local Time) from KPNM Reporting Station
Light Snow Light Snow  
Wind Chill:   Ceiling: 5000
Heat Index: 19°   Visibility: 10mi
Dew Point: 14°   Wind: 16mph
Humidity: 80%   Direction: 300°WNW
Pressure: 29.53"   Gusts: 23mph
Location:  45.7°N, 93.65°W
Report Text: KPNM 242014Z AUTO 30014G20KT 10SM -SN SCT020 OVC050 M07/M10 A2953 RMK AO2
Loading
Personal Weather Stations






























Interactive Weather Map New forecast layout! Learn more

10-Day Weather Forecast

Advertisements
Track Severe Weather on mobile